Terminal Aerodrome Forecast
Issued by NWS Cleveland, OH

Current Version | Previous Version | Text Only | Print | Product List | Glossary On
Versions: 1 2 3 4 5 6 7 8 9 10 11 12 13 14 15 16 17
000
FTUS41 KCLE 301100
TAFERI
TAF
KERI 301120Z 3012/3112 17012G20KT P6SM SCT250
     FM301400 19012KT P6SM SCT120 BKN250
     FM310500 19012KT 6SM -TSRA SCT035CB OVC100
     FM310900 21012KT P6SM OVC050=

USA.gov is the U.S. government's official web portal to all federal, state and local government web resources and services.